sensor_id;sensor_type;location;lat;lon;timestamp;temperature;humidity
18335;DHT22;9293;49.524;10.964;2022-12-05T05:35:06;4.60;99.90
18335;DHT22;9293;49.524;10.964;2022-12-05T05:37:34;4.60;99.90
18335;DHT22;9293;49.524;10.964;2022-12-05T05:40:05;4.50;99.90
18335;DHT22;9293;49.524;10.964;2022-12-05T05:42:44;4.50;99.90
18335;DHT22;9293;49.524;10.964;2022-12-05T05:45:14;4.60;99.90
18335;DHT22;9293;49.524;10.964;2022-12-05T05:47:42;4.60;99.90
18335;DHT22;9293;49.524;10.964;2022-12-05T05:50:12;4.50;99.90
18335;DHT22;9293;49.524;10.964;2022-12-05T05:52:46;4.50;99.90
18335;DHT22;9293;49.524;10.964;2022-12-05T05:55:14;4.50;99.90
18335;DHT22;9293;49.524;10.964;2022-12-05T05:57:43;4.50;99.90
18335;DHT22;9293;49.524;10.964;2022-12-05T06:00:11;4.50;99.90
18335;DHT22;9293;49.524;10.964;2022-12-05T06:02:39;4.50;99.90
18335;DHT22;9293;49.524;10.964;2022-12-05T06:05:08;4.50;99.90
18335;DHT22;9293;49.524;10.964;2022-12-05T06:07:37;4.50;99.90
18335;DHT22;9293;49.524;10.964;2022-12-05T06:10:05;4.50;99.90
18335;DHT22;9293;49.524;10.964;2022-12-05T06:12:33;4.50;99.90
18335;DHT22;9293;49.524;10.964;2022-12-05T06:15:02;4.60;99.90
18335;DHT22;9293;49.524;10.964;2022-12-05T06:17:33;4.60;99.90
18335;DHT22;9293;49.524;10.964;2022-12-05T06:20:06;4.60;99.90
18335;DHT22;9293;49.524;10.964;2022-12-05T06:22:35;4.50;99.90
18335;DHT22;9293;49.524;10.964;2022-12-05T06:25:03;4.40;99.90
18335;DHT22;9293;49.524;10.964;2022-12-05T06:27:32;4.40;99.90
18335;DHT22;9293;49.524;10.964;2022-12-05T06:30:00;4.40;99.90
18335;DHT22;9293;49.524;10.964;2022-12-05T06:32:28;4.30;99.90
18335;DHT22;9293;49.524;10.964;2022-12-05T06:34:57;4.30;99.90
18335;DHT22;9293;49.524;10.964;2022-12-05T06:37:26;4.20;99.90
18335;DHT22;9293;49.524;10.964;2022-12-05T06:39:54;4.20;99.90
18335;DHT22;9293;49.524;10.964;2022-12-05T06:42:23;4.20;99.90
18335;DHT22;9293;49.524;10.964;2022-12-05T06:44:51;4.30;99.90
18335;DHT22;9293;49.524;10.964;2022-12-05T06:47:20;4.20;99.90
18335;DHT22;9293;49.524;10.964;2022-12-05T06:49:48;4.20;99.90
18335;DHT22;9293;49.524;10.964;2022-12-05T06:52:17;4.20;99.90
18335;DHT22;9293;49.524;10.964;2022-12-05T06:54:45;4.20;99.90
18335;DHT22;9293;49.524;10.964;2022-12-05T06:57:13;4.20;99.90
18335;DHT22;9293;49.524;10.964;2022-12-05T06:59:42;4.20;99.90
18335;DHT22;9293;49.524;10.964;2022-12-05T07:02:12;4.20;99.90
18335;DHT22;9293;49.524;10.964;2022-12-05T07:04:40;4.20;99.90
18335;DHT22;9293;49.524;10.964;2022-12-05T07:07:08;4.20;99.90
18335;DHT22;9293;49.524;10.964;2022-12-05T07:09:36;4.10;99.90
18335;DHT22;9293;49.524;10.964;2022-12-05T07:12:16;4.10;99.90
18335;DHT22;9293;49.524;10.964;2022-12-05T07:14:45;4.20;99.90
18335;DHT22;9293;49.524;10.964;2022-12-05T07:17:17;4.10;99.90
18335;DHT22;9293;49.524;10.964;2022-12-05T07:19:49;4.10;99.90
18335;DHT22;9293;49.524;10.964;2022-12-05T07:22:19;4.00;99.90
18335;DHT22;9293;49.524;10.964;2022-12-05T07:24:50;4.00;99.90
18335;DHT22;9293;49.524;10.964;2022-12-05T07:27:21;4.00;99.90
18335;DHT22;9293;49.524;10.964;2022-12-05T07:29:54;4.00;99.90
18335;DHT22;9293;49.524;10.964;2022-12-05T07:32:23;4.00;99.90
18335;DHT22;9293;49.524;10.964;2022-12-05T07:34:51;4.00;99.90
18335;DHT22;9293;49.524;10.964;2022-12-05T07:37:21;4.10;99.90
18335;DHT22;9293;49.524;10.964;2022-12-05T07:39:51;4.10;99.90
18335;DHT22;9293;49.524;10.964;2022-12-05T07:42:19;4.10;99.90
18335;DHT22;9293;49.524;10.964;2022-12-05T07:44:48;4.10;99.90
18335;DHT22;9293;49.524;10.964;2022-12-05T07:47:16;4.10;99.90
18335;DHT22;9293;49.524;10.964;2022-12-05T07:49:44;4.10;99.90
18335;DHT22;9293;49.524;10.964;2022-12-05T07:52:12;4.10;99.90
18335;DHT22;9293;49.524;10.964;2022-12-05T07:54:40;4.10;99.90
18335;DHT22;9293;49.524;10.964;2022-12-05T07:57:08;4.20;99.90
18335;DHT22;9293;49.524;10.964;2022-12-05T07:59:36;4.10;99.90
18335;DHT22;9293;49.524;10.964;2022-12-05T08:02:04;4.10;99.90
18335;DHT22;9293;49.524;10.964;2022-12-05T08:04:33;4.10;99.90
18335;DHT22;9293;49.524;10.964;2022-12-05T08:07:01;4.10;99.90
18335;DHT22;9293;49.524;10.964;2022-12-05T08:09:29;4.20;99.90
18335;DHT22;9293;49.524;10.964;2022-12-05T08:11:57;4.20;99.90
18335;DHT22;9293;49.524;10.964;2022-12-05T08:14:25;4.20;99.90
18335;DHT22;9293;49.524;10.964;2022-12-05T08:16:53;4.20;99.90
18335;DHT22;9293;49.524;10.964;2022-12-05T08:19:21;4.20;99.90
18335;DHT22;9293;49.524;10.964;2022-12-05T08:21:49;4.20;99.90
18335;DHT22;9293;49.524;10.964;2022-12-05T08:24:19;4.20;99.90
18335;DHT22;9293;49.524;10.964;2022-12-05T08:26:47;4.30;99.90
18335;DHT22;9293;49.524;10.964;2022-12-05T08:29:19;4.30;99.90
18335;DHT22;9293;49.524;10.964;2022-12-05T08:31:49;4.30;99.90
18335;DHT22;9293;49.524;10.964;2022-12-05T08:34:19;4.30;99.90
18335;DHT22;9293;49.524;10.964;2022-12-05T08:36:47;4.30;99.90
18335;DHT22;9293;49.524;10.964;2022-12-05T08:39:17;4.30;99.90
18335;DHT22;9293;49.524;10.964;2022-12-05T08:41:46;4.30;99.90
18335;DHT22;9293;49.524;10.964;2022-12-05T08:44:15;4.40;99.90
18335;DHT22;9293;49.524;10.964;2022-12-05T08:46:46;4.40;99.90
18335;DHT22;9293;49.524;10.964;2022-12-05T08:49:15;4.40;99.90
18335;DHT22;9293;49.524;10.964;2022-12-05T08:51:44;4.40;99.90
18335;DHT22;9293;49.524;10.964;2022-12-05T08:54:12;4.40;99.90
18335;DHT22;9293;49.524;10.964;2022-12-05T08:56:40;4.30;99.90
18335;DHT22;9293;49.524;10.964;2022-12-05T08:59:08;4.30;99.90
18335;DHT22;9293;49.524;10.964;2022-12-05T09:01:42;4.30;99.90
18335;DHT22;9293;49.524;10.964;2022-12-05T09:04:14;4.40;99.90
18335;DHT22;9293;49.524;10.964;2022-12-05T09:06:42;4.30;99.90
18335;DHT22;9293;49.524;10.964;2022-12-05T09:09:11;4.40;99.90
18335;DHT22;9293;49.524;10.964;2022-12-05T09:11:42;4.40;99.90
18335;DHT22;9293;49.524;10.964;2022-12-05T09:14:16;4.40;99.90
18335;DHT22;9293;49.524;10.964;2022-12-05T09:16:45;4.50;99.90
18335;DHT22;9293;49.524;10.964;2022-12-05T09:19:19;4.50;99.90
18335;DHT22;9293;49.524;10.964;2022-12-05T09:21:52;4.50;99.90
18335;DHT22;9293;49.524;10.964;2022-12-05T09:24:20;4.50;99.90
18335;DHT22;9293;49.524;10.964;2022-12-05T09:26:48;4.50;99.90
18335;DHT22;9293;49.524;10.964;2022-12-05T09:29:17;4.50;99.90
18335;DHT22;9293;49.524;10.964;2022-12-05T09:31:47;4.50;99.90
18335;DHT22;9293;49.524;10.964;2022-12-05T09:34:18;4.60;99.90
18335;DHT22;9293;49.524;10.964;2022-12-05T09:36:47;4.50;99.90
18335;DHT22;9293;49.524;10.964;2022-12-05T09:39:32;4.60;99.90
18335;DHT22;9293;49.524;10.964;2022-12-05T09:43:12;4.60;99.90
18335;DHT22;9293;49.524;10.964;2022-12-05T09:45:53;4.70;99.90
18335;DHT22;9293;49.524;10.964;2022-12-05T09:48:24;4.70;99.90
18335;DHT22;9293;49.524;10.964;2022-12-05T09:50:56;4.70;99.90
18335;DHT22;9293;49.524;10.964;2022-12-05T09:53:49;4.80;99.90
18335;DHT22;9293;49.524;10.964;2022-12-05T09:56:22;4.80;99.90
18335;DHT22;9293;49.524;10.964;2022-12-05T09:58:54;4.80;99.90
18335;DHT22;9293;49.524;10.964;2022-12-05T10:01:39;4.70;99.90
18335;DHT22;9293;49.524;10.964;2022-12-05T10:04:41;4.70;99.90
18335;DHT22;9293;49.524;10.964;2022-12-05T10:13:07;4.70;99.90
18335;DHT22;9293;49.524;10.964;2022-12-05T10:15:52;4.80;99.90
18335;DHT22;9293;49.524;10.964;2022-12-05T10:26:28;4.80;99.90
18335;DHT22;9293;49.524;10.964;2022-12-05T10:31:45;4.90;99.90
18335;DHT22;9293;49.524;10.964;2022-12-05T10:34:21;4.90;99.90
18335;DHT22;9293;49.524;10.964;2022-12-05T10:36:56;4.90;99.90
18335;DHT22;9293;49.524;10.964;2022-12-05T10:39:26;5.00;99.90
18335;DHT22;9293;49.524;10.964;2022-12-05T10:41:54;4.90;99.90
18335;DHT22;9293;49.524;10.964;2022-12-05T10:44:23;4.90;99.90
18335;DHT22;9293;49.524;10.964;2022-12-05T10:46:51;5.00;99.90
18335;DHT22;9293;49.524;10.964;2022-12-05T10:49:19;5.00;99.90
18335;DHT22;9293;49.524;10.964;2022-12-05T10:51:48;5.00;99.90
18335;DHT22;9293;49.524;10.964;2022-12-05T10:54:29;5.00;99.90
18335;DHT22;9293;49.524;10.964;2022-12-05T10:56:57;5.00;99.90
18335;DHT22;9293;49.524;10.964;2022-12-05T10:59:46;5.10;99.90
18335;DHT22;9293;49.524;10.964;2022-12-05T11:02:29;5.10;99.90
18335;DHT22;9293;49.524;10.964;2022-12-05T11:04:58;5.10;99.90
18335;DHT22;9293;49.524;10.964;2022-12-05T11:07:47;5.10;99.90
18335;DHT22;9293;49.524;10.964;2022-12-05T11:12:59;5.20;99.90
18335;DHT22;9293;49.524;10.964;2022-12-05T11:15:30;5.20;99.90
18335;DHT22;9293;49.524;10.964;2022-12-05T11:18:32;5.20;99.90
18335;DHT22;9293;49.524;10.964;2022-12-05T11:21:13;5.10;99.90
18335;DHT22;9293;49.524;10.964;2022-12-05T11:23:42;5.10;99.90
18335;DHT22;9293;49.524;10.964;2022-12-05T11:26:32;5.10;99.90
18335;DHT22;9293;49.524;10.964;2022-12-05T11:29:52;5.10;99.90
18335;DHT22;9293;49.524;10.964;2022-12-05T11:31:50;5.10;99.90
18335;DHT22;9293;49.524;10.964;2022-12-05T11:34:22;5.20;99.90
18335;DHT22;9293;49.524;10.964;2022-12-05T11:36:55;5.20;99.90
18335;DHT22;9293;49.524;10.964;2022-12-05T11:39:25;5.00;99.90
18335;DHT22;9293;49.524;10.964;2022-12-05T11:47:44;5.10;99.90
18335;DHT22;9293;49.524;10.964;2022-12-05T11:50:36;5.20;99.90
18335;DHT22;9293;49.524;10.964;2022-12-05T11:53:29;5.10;99.90
18335;DHT22;9293;49.524;10.964;2022-12-05T11:59:07;5.10;99.90
18335;DHT22;9293;49.524;10.964;2022-12-05T12:01:48;5.20;99.90
18335;DHT22;9293;49.524;10.964;2022-12-05T12:04:36;5.20;99.90
18335;DHT22;9293;49.524;10.964;2022-12-05T12:10:20;5.30;99.90
18335;DHT22;9293;49.524;10.964;2022-12-05T12:16:09;5.40;99.90
18335;DHT22;9293;49.524;10.964;2022-12-05T12:21:21;5.40;99.90
18335;DHT22;9293;49.524;10.964;2022-12-05T12:24:16;5.50;99.90
18335;DHT22;9293;49.524;10.964;2022-12-05T12:27:04;5.50;99.90
18335;DHT22;9293;49.524;10.964;2022-12-05T12:35:45;5.70;99.90
18335;DHT22;9293;49.524;10.964;2022-12-05T12:38:38;5.70;99.90
18335;DHT22;9293;49.524;10.964;2022-12-05T12:50:36;5.50;99.90
18335;DHT22;9293;49.524;10.964;2022-12-05T12:56:35;5.40;99.90
18335;DHT22;9293;49.524;10.964;2022-12-05T13:04:33;5.30;99.90
18335;DHT22;9293;49.524;10.964;2022-12-05T13:07:14;5.30;99.90
18335;DHT22;9293;49.524;10.964;2022-12-05T13:09:57;5.40;99.90
18335;DHT22;9293;49.524;10.964;2022-12-05T13:12:30;5.40;99.90
18335;DHT22;9293;49.524;10.964;2022-12-05T13:15:04;5.40;99.90
18335;DHT22;9293;49.524;10.964;2022-12-05T13:17:34;5.50;99.90
18335;DHT22;9293;49.524;10.964;2022-12-05T13:20:03;5.50;99.90
18335;DHT22;9293;49.524;10.964;2022-12-05T13:22:31;5.60;99.90
18335;DHT22;9293;49.524;10.964;2022-12-05T13:24:59;5.60;99.90
18335;DHT22;9293;49.524;10.964;2022-12-05T13:27:27;5.60;99.90
18335;DHT22;9293;49.524;10.964;2022-12-05T13:29:58;5.60;99.90
18335;DHT22;9293;49.524;10.964;2022-12-05T13:35:20;5.60;99.90
18335;DHT22;9293;49.524;10.964;2022-12-05T13:38:28;5.70;99.90
18335;DHT22;9293;49.524;10.964;2022-12-05T13:41:16;5.60;99.90
18335;DHT22;9293;49.524;10.964;2022-12-05T13:44:03;5.70;99.90
18335;DHT22;9293;49.524;10.964;2022-12-05T13:46:41;5.70;99.90
18335;DHT22;9293;49.524;10.964;2022-12-05T13:49:16;5.60;99.90
18335;DHT22;9293;49.524;10.964;2022-12-05T13:51:45;5.50;99.90
18335;DHT22;9293;49.524;10.964;2022-12-05T13:54:23;5.60;99.90
18335;DHT22;9293;49.524;10.964;2022-12-05T13:56:57;5.50;99.90
18335;DHT22;9293;49.524;10.964;2022-12-05T13:59:57;5.50;99.90
18335;DHT22;9293;49.524;10.964;2022-12-05T14:07:45;5.60;99.90
18335;DHT22;9293;49.524;10.964;2022-12-05T14:10:19;5.60;99.90
18335;DHT22;9293;49.524;10.964;2022-12-05T14:15:31;5.60;99.90
18335;DHT22;9293;49.524;10.964;2022-12-05T14:26:14;5.40;99.90
18335;DHT22;9293;49.524;10.964;2022-12-05T14:28:55;5.40;99.90
18335;DHT22;9293;49.524;10.964;2022-12-05T14:34:22;5.50;99.90
18335;DHT22;9293;49.524;10.964;2022-12-05T14:39:32;5.50;99.90
18335;DHT22;9293;49.524;10.964;2022-12-05T14:42:04;5.60;99.90
18335;DHT22;9293;49.524;10.964;2022-12-05T14:44:34;5.60;99.90
18335;DHT22;9293;49.524;10.964;2022-12-05T14:47:03;5.50;99.90
18335;DHT22;9293;49.524;10.964;2022-12-05T14:52:10;5.50;99.90
18335;DHT22;9293;49.524;10.964;2022-12-05T14:54:39;5.50;99.90
18335;DHT22;9293;49.524;10.964;2022-12-05T14:57:12;5.50;99.90
18335;DHT22;9293;49.524;10.964;2022-12-05T15:00:05;5.50;99.90
18335;DHT22;9293;49.524;10.964;2022-12-05T15:02:46;5.50;99.90
18335;DHT22;9293;49.524;10.964;2022-12-05T15:05:29;5.60;99.90
18335;DHT22;9293;49.524;10.964;2022-12-05T15:08:00;5.50;99.90
18335;DHT22;9293;49.524;10.964;2022-12-05T15:10:42;5.50;99.90
18335;DHT22;9293;49.524;10.964;2022-12-05T15:13:17;5.40;99.90
18335;DHT22;9293;49.524;10.964;2022-12-05T15:16:12;5.40;99.90
18335;DHT22;9293;49.524;10.964;2022-12-05T15:18:50;5.30;99.90
18335;DHT22;9293;49.524;10.964;2022-12-05T15:21:28;5.30;99.90
18335;DHT22;9293;49.524;10.964;2022-12-05T15:24:00;5.30;99.90
18335;DHT22;9293;49.524;10.964;2022-12-05T15:26:46;5.30;99.90
18335;DHT22;9293;49.524;10.964;2022-12-05T15:31:58;5.40;99.90
18335;DHT22;9293;49.524;10.964;2022-12-05T15:34:36;5.40;99.90
18335;DHT22;9293;49.524;10.964;2022-12-05T15:40:01;5.40;99.90
18335;DHT22;9293;49.524;10.964;2022-12-05T15:42:42;5.40;99.90
18335;DHT22;9293;49.524;10.964;2022-12-05T15:50:42;5.50;99.90
18335;DHT22;9293;49.524;10.964;2022-12-05T15:55:55;5.50;99.90
18335;DHT22;9293;49.524;10.964;2022-12-05T16:01:19;5.50;99.90
18335;DHT22;9293;49.524;10.964;2022-12-05T16:04:00;5.50;99.90
18335;DHT22;9293;49.524;10.964;2022-12-05T16:06:36;5.50;99.90
18335;DHT22;9293;49.524;10.964;2022-12-05T16:09:08;5.40;99.90
18335;DHT22;9293;49.524;10.964;2022-12-05T16:12:02;5.40;99.90
18335;DHT22;9293;49.524;10.964;2022-12-05T16:14:35;5.40;99.90
18335;DHT22;9293;49.524;10.964;2022-12-05T16:17:24;5.50;99.90
18335;DHT22;9293;49.524;10.964;2022-12-05T16:19:52;5.40;99.90
18335;DHT22;9293;49.524;10.964;2022-12-05T16:22:22;5.40;99.90
18335;DHT22;9293;49.524;10.964;2022-12-05T16:24:59;5.50;99.90
18335;DHT22;9293;49.524;10.964;2022-12-05T16:27:34;5.40;99.90
18335;DHT22;9293;49.524;10.964;2022-12-05T16:32:44;5.40;99.90
18335;DHT22;9293;49.524;10.964;2022-12-05T16:35:44;5.30;99.90
18335;DHT22;9293;49.524;10.964;2022-12-05T16:38:28;5.30;99.90
18335;DHT22;9293;49.524;10.964;2022-12-05T16:41:00;5.30;99.90
18335;DHT22;9293;49.524;10.964;2022-12-05T16:49:17;5.30;99.90
18335;DHT22;9293;49.524;10.964;2022-12-05T16:52:02;5.20;99.90
18335;DHT22;9293;49.524;10.964;2022-12-05T16:54:30;5.20;99.90
18335;DHT22;9293;49.524;10.964;2022-12-05T16:56:59;5.10;99.90
18335;DHT22;9293;49.524;10.964;2022-12-05T16:59:38;5.00;99.90
18335;DHT22;9293;49.524;10.964;2022-12-05T17:02:28;5.00;99.90
18335;DHT22;9293;49.524;10.964;2022-12-05T17:05:02;5.00;99.90
18335;DHT22;9293;49.524;10.964;2022-12-05T17:07:33;5.00;99.90
18335;DHT22;9293;49.524;10.964;2022-12-05T17:10:01;5.00;99.90
18335;DHT22;9293;49.524;10.964;2022-12-05T17:12:29;4.90;99.90
18335;DHT22;9293;49.524;10.964;2022-12-05T17:14:57;4.90;99.90
18335;DHT22;9293;49.524;10.964;2022-12-05T17:17:26;4.90;99.90
18335;DHT22;9293;49.524;10.964;2022-12-05T17:19:54;4.90;99.90
18335;DHT22;9293;49.524;10.964;2022-12-05T17:22:22;4.90;99.90
18335;DHT22;9293;49.524;10.964;2022-12-05T17:24:50;4.90;99.90
18335;DHT22;9293;49.524;10.964;2022-12-05T17:27:18;5.00;99.90
18335;DHT22;9293;49.524;10.964;2022-12-05T17:29:46;4.90;99.90
18335;DHT22;9293;49.524;10.964;2022-12-05T17:32:14;4.80;99.90
18335;DHT22;9293;49.524;10.964;2022-12-05T17:34:42;4.90;99.90
18335;DHT22;9293;49.524;10.964;2022-12-05T17:37:10;4.90;99.90
18335;DHT22;9293;49.524;10.964;2022-12-05T17:39:38;5.00;99.90
18335;DHT22;9293;49.524;10.964;2022-12-05T17:42:06;5.00;99.90
18335;DHT22;9293;49.524;10.964;2022-12-05T17:44:35;5.00;99.90
18335;DHT22;9293;49.524;10.964;2022-12-05T17:47:03;4.90;99.90
18335;DHT22;9293;49.524;10.964;2022-12-05T17:49:34;4.90;99.90
18335;DHT22;9293;49.524;10.964;2022-12-05T17:52:04;4.90;99.90
18335;DHT22;9293;49.524;10.964;2022-12-05T17:54:47;4.90;99.90
18335;DHT22;9293;49.524;10.964;2022-12-05T17:57:15;4.90;99.90
18335;DHT22;9293;49.524;10.964;2022-12-05T17:59:43;4.90;99.90
18335;DHT22;9293;49.524;10.964;2022-12-05T18:02:15;4.90;99.90
18335;DHT22;9293;49.524;10.964;2022-12-05T18:04:58;4.90;99.90
18335;DHT22;9293;49.524;10.964;2022-12-05T18:07:26;5.00;99.90
18335;DHT22;9293;49.524;10.964;2022-12-05T18:09:54;5.00;99.90
18335;DHT22;9293;49.524;10.964;2022-12-05T18:12:23;4.90;99.90
18335;DHT22;9293;49.524;10.964;2022-12-05T18:14:51;4.90;99.90
18335;DHT22;9293;49.524;10.964;2022-12-05T18:17:19;4.90;99.90
18335;DHT22;9293;49.524;10.964;2022-12-05T18:19:47;4.90;99.90
18335;DHT22;9293;49.524;10.964;2022-12-05T18:22:15;4.90;99.90
18335;DHT22;9293;49.524;10.964;2022-12-05T18:24:47;4.90;99.90
18335;DHT22;9293;49.524;10.964;2022-12-05T18:27:15;4.90;99.90
18335;DHT22;9293;49.524;10.964;2022-12-05T18:29:43;4.80;99.90
18335;DHT22;9293;49.524;10.964;2022-12-05T18:32:14;4.80;99.90
18335;DHT22;9293;49.524;10.964;2022-12-05T18:34:42;4.70;99.90
18335;DHT22;9293;49.524;10.964;2022-12-05T18:37:10;4.70;99.90
18335;DHT22;9293;49.524;10.964;2022-12-05T18:39:38;4.70;99.90
18335;DHT22;9293;49.524;10.964;2022-12-05T18:42:06;4.50;99.90
18335;DHT22;9293;49.524;10.964;2022-12-05T18:44:41;4.50;99.90
18335;DHT22;9293;49.524;10.964;2022-12-05T18:47:09;4.40;99.90
18335;DHT22;9293;49.524;10.964;2022-12-05T18:49:37;4.40;99.90
18335;DHT22;9293;49.524;10.964;2022-12-05T18:52:05;4.40;99.90
18335;DHT22;9293;49.524;10.964;2022-12-05T18:54:34;4.30;99.90
18335;DHT22;9293;49.524;10.964;2022-12-05T18:57:02;4.40;99.90
18335;DHT22;9293;49.524;10.964;2022-12-05T18:59:30;4.40;99.90
18335;DHT22;9293;49.524;10.964;2022-12-05T19:01:58;4.40;99.90
18335;DHT22;9293;49.524;10.964;2022-12-05T19:04:27;4.40;99.90
18335;DHT22;9293;49.524;10.964;2022-12-05T19:06:57;4.50;99.90
18335;DHT22;9293;49.524;10.964;2022-12-05T19:09:28;4.50;99.90
18335;DHT22;9293;49.524;10.964;2022-12-05T19:11:58;4.50;99.90
18335;DHT22;9293;49.524;10.964;2022-12-05T19:14:28;4.50;99.90
18335;DHT22;9293;49.524;10.964;2022-12-05T19:17:03;4.40;99.90
18335;DHT22;9293;49.524;10.964;2022-12-05T19:19:35;4.40;99.90
18335;DHT22;9293;49.524;10.964;2022-12-05T19:22:03;4.40;99.90
18335;DHT22;9293;49.524;10.964;2022-12-05T19:24:31;4.40;99.90
18335;DHT22;9293;49.524;10.964;2022-12-05T19:26:59;4.40;99.90
18335;DHT22;9293;49.524;10.964;2022-12-05T19:29:27;4.50;99.90
18335;DHT22;9293;49.524;10.964;2022-12-05T19:31:55;4.40;99.90
18335;DHT22;9293;49.524;10.964;2022-12-05T19:34:23;4.40;99.90
18335;DHT22;9293;49.524;10.964;2022-12-05T19:36:51;4.40;99.90
18335;DHT22;9293;49.524;10.964;2022-12-05T19:39:21;4.50;99.90
18335;DHT22;9293;49.524;10.964;2022-12-05T19:41:49;4.40;99.90
18335;DHT22;9293;49.524;10.964;2022-12-05T19:44:19;4.40;99.90
18335;DHT22;9293;49.524;10.964;2022-12-05T19:46:47;4.40;99.90
18335;DHT22;9293;49.524;10.964;2022-12-05T19:49:16;4.40;99.90
18335;DHT22;9293;49.524;10.964;2022-12-05T19:51:44;4.40;99.90
18335;DHT22;9293;49.524;10.964;2022-12-05T19:54:13;4.30;99.90
18335;DHT22;9293;49.524;10.964;2022-12-05T19:56:41;4.30;99.90
18335;DHT22;9293;49.524;10.964;2022-12-05T19:59:12;4.30;99.90
18335;DHT22;9293;49.524;10.964;2022-12-05T20:01:41;4.30;99.90
18335;DHT22;9293;49.524;10.964;2022-12-05T20:04:12;4.30;99.90
18335;DHT22;9293;49.524;10.964;2022-12-05T20:06:42;4.30;99.90
18335;DHT22;9293;49.524;10.964;2022-12-05T20:09:12;4.30;99.90
18335;DHT22;9293;49.524;10.964;2022-12-05T20:11:43;4.30;99.90
18335;DHT22;9293;49.524;10.964;2022-12-05T20:14:20;4.30;99.90
18335;DHT22;9293;49.524;10.964;2022-12-05T20:16:48;4.30;99.90
18335;DHT22;9293;49.524;10.964;2022-12-05T20:19:17;4.30;99.90
18335;DHT22;9293;49.524;10.964;2022-12-05T20:21:45;4.30;99.90
18335;DHT22;9293;49.524;10.964;2022-12-05T20:24:13;4.40;99.90
18335;DHT22;9293;49.524;10.964;2022-12-05T20:26:43;4.40;99.90
18335;DHT22;9293;49.524;10.964;2022-12-05T20:29:11;4.40;99.90
18335;DHT22;9293;49.524;10.964;2022-12-05T20:31:41;4.40;99.90
18335;DHT22;9293;49.524;10.964;2022-12-05T20:34:12;4.40;99.90
18335;DHT22;9293;49.524;10.964;2022-12-05T20:36:43;4.40;99.90
18335;DHT22;9293;49.524;10.964;2022-12-05T20:39:13;4.50;99.90
18335;DHT22;9293;49.524;10.964;2022-12-05T20:41:42;4.50;99.90
18335;DHT22;9293;49.524;10.964;2022-12-05T20:44:13;4.50;99.90
18335;DHT22;9293;49.524;10.964;2022-12-05T20:46:41;4.50;99.90
18335;DHT22;9293;49.524;10.964;2022-12-05T20:49:13;4.50;99.90
18335;DHT22;9293;49.524;10.964;2022-12-05T20:51:42;4.50;99.90
18335;DHT22;9293;49.524;10.964;2022-12-05T20:54:12;4.50;99.90
18335;DHT22;9293;49.524;10.964;2022-12-05T20:56:41;4.50;99.90
18335;DHT22;9293;49.524;10.964;2022-12-05T20:59:10;4.60;99.90
18335;DHT22;9293;49.524;10.964;2022-12-05T21:01:39;4.50;99.90
18335;DHT22;9293;49.524;10.964;2022-12-05T21:04:10;4.50;99.90
18335;DHT22;9293;49.524;10.964;2022-12-05T21:06:39;4.50;99.90
18335;DHT22;9293;49.524;10.964;2022-12-05T21:09:10;4.50;99.90
18335;DHT22;9293;49.524;10.964;2022-12-05T21:11:43;4.40;99.90
18335;DHT22;9293;49.524;10.964;2022-12-05T21:14:11;4.40;99.90
18335;DHT22;9293;49.524;10.964;2022-12-05T21:16:39;4.40;99.90
18335;DHT22;9293;49.524;10.964;2022-12-05T21:19:07;4.40;99.90
18335;DHT22;9293;49.524;10.964;2022-12-05T21:21:35;4.40;99.90
18335;DHT22;9293;49.524;10.964;2022-12-05T21:24:04;4.40;99.90
18335;DHT22;9293;49.524;10.964;2022-12-05T21:26:33;4.40;99.90
18335;DHT22;9293;49.524;10.964;2022-12-05T21:29:02;4.30;99.90
18335;DHT22;9293;49.524;10.964;2022-12-05T21:31:33;4.20;99.90
18335;DHT22;9293;49.524;10.964;2022-12-05T21:34:10;4.10;99.90
18335;DHT22;9293;49.524;10.964;2022-12-05T21:36:42;3.90;99.90
18335;DHT22;9293;49.524;10.964;2022-12-05T21:39:14;3.80;99.90
18335;DHT22;9293;49.524;10.964;2022-12-05T21:41:42;3.70;99.90
18335;DHT22;9293;49.524;10.964;2022-12-05T21:44:10;3.60;99.90
18335;DHT22;9293;49.524;10.964;2022-12-05T21:46:38;3.50;99.90
18335;DHT22;9293;49.524;10.964;2022-12-05T21:49:06;3.50;99.90
18335;DHT22;9293;49.524;10.964;2022-12-05T21:51:34;3.40;99.90
18335;DHT22;9293;49.524;10.964;2022-12-05T21:54:02;3.40;99.90
18335;DHT22;9293;49.524;10.964;2022-12-05T21:56:30;3.40;99.90
18335;DHT22;9293;49.524;10.964;2022-12-05T21:58:58;3.40;99.90
18335;DHT22;9293;49.524;10.964;2022-12-05T22:01:27;3.30;99.90
18335;DHT22;9293;49.524;10.964;2022-12-05T22:03:56;3.30;99.90
18335;DHT22;9293;49.524;10.964;2022-12-05T22:06:28;3.20;99.90
18335;DHT22;9293;49.524;10.964;2022-12-05T22:09:00;3.20;99.90
18335;DHT22;9293;49.524;10.964;2022-12-05T22:11:29;3.20;99.90
18335;DHT22;9293;49.524;10.964;2022-12-05T22:13:56;3.10;99.90
18335;DHT22;9293;49.524;10.964;2022-12-05T22:16:27;3.10;99.90
18335;DHT22;9293;49.524;10.964;2022-12-05T22:18:59;3.00;99.90
18335;DHT22;9293;49.524;10.964;2022-12-05T22:21:28;3.00;99.90
18335;DHT22;9293;49.524;10.964;2022-12-05T22:23:57;3.00;99.90
18335;DHT22;9293;49.524;10.964;2022-12-05T22:26:25;2.80;99.90
18335;DHT22;9293;49.524;10.964;2022-12-05T22:28:54;2.60;99.90
18335;DHT22;9293;49.524;10.964;2022-12-05T22:31:25;2.50;99.90
18335;DHT22;9293;49.524;10.964;2022-12-05T22:33:54;2.30;99.90
18335;DHT22;9293;49.524;10.964;2022-12-05T22:36:22;2.30;99.90
18335;DHT22;9293;49.524;10.964;2022-12-05T22:38:51;2.20;99.90
18335;DHT22;9293;49.524;10.964;2022-12-05T22:41:22;2.10;99.90
18335;DHT22;9293;49.524;10.964;2022-12-05T22:43:55;2.10;99.90
18335;DHT22;9293;49.524;10.964;2022-12-05T22:46:25;2.20;99.90
18335;DHT22;9293;49.524;10.964;2022-12-05T22:48:54;2.20;99.90
18335;DHT22;9293;49.524;10.964;2022-12-05T22:51:23;2.20;99.90
18335;DHT22;9293;49.524;10.964;2022-12-05T22:53:56;2.20;99.90
18335;DHT22;9293;49.524;10.964;2022-12-05T22:56:26;2.20;99.90
18335;DHT22;9293;49.524;10.964;2022-12-05T22:58:56;2.20;99.90
18335;DHT22;9293;49.524;10.964;2022-12-05T23:01:33;2.20;99.90
18335;DHT22;9293;49.524;10.964;2022-12-05T23:04:07;2.10;99.90
18335;DHT22;9293;49.524;10.964;2022-12-05T23:06:36;2.10;99.90
18335;DHT22;9293;49.524;10.964;2022-12-05T23:09:07;2.10;99.90
18335;DHT22;9293;49.524;10.964;2022-12-05T23:11:36;2.00;99.90
18335;DHT22;9293;49.524;10.964;2022-12-05T23:14:05;2.00;99.90
18335;DHT22;9293;49.524;10.964;2022-12-05T23:16:34;2.00;99.90
18335;DHT22;9293;49.524;10.964;2022-12-05T23:19:04;2.00;99.90
18335;DHT22;9293;49.524;10.964;2022-12-05T23:21:41;1.80;99.90
18335;DHT22;9293;49.524;10.964;2022-12-05T23:24:11;1.80;99.90
18335;DHT22;9293;49.524;10.964;2022-12-05T23:26:42;1.70;99.90
18335;DHT22;9293;49.524;10.964;2022-12-05T23:29:11;1.60;99.90
18335;DHT22;9293;49.524;10.964;2022-12-05T23:31:40;1.60;99.90
18335;DHT22;9293;49.524;10.964;2022-12-05T23:34:09;1.60;99.90
18335;DHT22;9293;49.524;10.964;2022-12-05T23:36:37;1.70;99.90
18335;DHT22;9293;49.524;10.964;2022-12-05T23:39:05;1.80;99.90
18335;DHT22;9293;49.524;10.964;2022-12-05T23:41:33;1.80;99.90
18335;DHT22;9293;49.524;10.964;2022-12-05T23:44:02;1.90;99.90